Time;durP1;ratioP1;P1;durP2;ratioP2;P2;SDS_P1;SDS_P2;PMS_P1;PMS_P2;Temp;Humidity;BMP_temperature;BMP_pressure;BME280_temperature;BME280_humidity;BME280_pressure;Samples;Min_cycle;Max_cycle;Signal;HPM_P1;HPM_P2
2022/04/12 00:00:37;;;;;;;6.15;3.38;;;;;;;6.38;45.34;101850.28;5031609;28;20529;-84
2022/04/12 00:03:03;;;;;;;7.82;4.35;;;;;;;6.39;45.70;101859.69;5015141;28;20598;-85
2022/04/12 00:05:28;;;;;;;6.88;4.07;;;;;;;6.40;45.74;101864.84;4998600;28;20136;-85
2022/04/12 00:07:54;;;;;;;7.00;4.15;;;;;;;6.39;46.25;101872.53;5015080;28;20387;-86
2022/04/12 00:10:19;;;;;;;7.82;4.25;;;;;;;6.28;46.33;101857.25;5015071;28;20490;-85
2022/04/12 00:12:46;;;;;;;7.43;4.40;;;;;;;6.24;46.19;101863.31;5031291;28;20445;-85
2022/04/12 00:15:11;;;;;;;6.82;4.03;;;;;;;6.29;45.80;101866.66;5013685;28;20028;-85
2022/04/12 00:20:21;;;;;;;6.68;3.83;;;;;;;6.08;46.83;101848.91;5017056;28;20120;-85
2022/04/12 00:22:47;;;;;;;6.60;3.60;;;;;;;6.29;45.38;101870.09;5014798;28;20017;-85
2022/04/12 00:25:13;;;;;;;6.70;3.63;;;;;;;6.28;46.33;101858.09;4998396;28;20029;-85
2022/04/12 00:27:40;;;;;;;5.18;3.40;;;;;;;6.34;46.17;101862.31;5014739;28;20017;-85
2022/04/12 00:30:07;;;;;;;6.22;3.30;;;;;;;6.30;46.36;101855.53;5014743;28;20025;-85
2022/04/12 00:32:33;;;;;;;5.15;3.50;;;;;;;6.17;46.97;101854.78;5014830;28;20043;-85
2022/04/12 00:34:59;;;;;;;4.57;2.88;;;;;;;6.13;45.87;101858.28;5014377;28;20490;-86
2022/04/12 00:37:24;;;;;;;4.93;3.05;;;;;;;6.13;46.24;101865.16;4998243;28;20075;-85
2022/04/12 00:39:50;;;;;;;5.22;3.03;;;;;;;6.02;46.43;101845.56;5030969;28;20044;-85
2022/04/12 00:42:15;;;;;;;5.13;3.10;;;;;;;6.10;46.48;101854.91;5014268;28;20109;-85
2022/04/12 00:44:40;;;;;;;4.97;2.85;;;;;;;5.99;47.05;101850.69;5014368;28;20029;-85
2022/04/12 00:47:06;;;;;;;5.18;3.13;;;;;;;6.08;46.49;101848.91;5014059;28;20056;-85
2022/04/12 00:49:32;;;;;;;5.50;2.85;;;;;;;5.89;46.55;101841.38;5014097;28;20030;-85
2022/04/12 00:51:57;;;;;;;5.85;3.10;;;;;;;5.77;46.68;101841.50;5014024;28;20474;-85
2022/04/12 00:54:23;;;;;;;5.70;3.42;;;;;;;5.86;46.48;101851.69;4997815;28;20442;-85
2022/04/12 00:56:49;;;;;;;4.55;2.70;;;;;;;5.82;47.07;101852.59;4997939;28;20069;-85
2022/04/12 00:59:14;;;;;;;4.63;3.20;;;;;;;5.76;46.97;101837.22;5013958;28;20049;-85
2022/04/12 01:01:40;;;;;;;6.57;3.05;;;;;;;5.66;46.86;101823.63;4997696;28;20021;-85
2022/04/12 01:04:06;;;;;;;4.55;3.00;;;;;;;5.84;46.89;101858.53;5013720;28;20398;-85
2022/04/12 01:06:31;;;;;;;4.45;2.85;;;;;;;5.76;46.46;101832.09;5014024;28;20036;-85
2022/04/12 01:08:57;;;;;;;4.40;2.97;;;;;;;5.95;46.60;101864.47;5014023;28;20459;-85
2022/04/12 01:11:23;;;;;;;7.25;3.25;;;;;;;5.93;47.30;101860.22;5014306;28;20040;-85
2022/04/12 01:13:48;;;;;;;4.68;3.20;;;;;;;5.80;47.08;101849.19;4997488;28;20028;-84
2022/04/12 01:16:14;;;;;;;6.50;3.10;;;;;;;5.82;47.22;101846.59;5013877;28;20060;-85
2022/04/12 01:18:40;;;;;;;6.13;3.22;;;;;;;5.74;46.68;101837.25;5029614;28;20056;-85
2022/04/12 01:21:05;;;;;;;6.57;3.85;;;;;;;5.82;46.69;101860.28;4997599;28;20395;-85
2022/04/12 01:23:34;;;;;;;8.35;3.97;;;;;;;5.59;46.95;101827.09;5030195;28;21202;-85
2022/04/12 01:25:59;;;;;;;7.13;3.80;;;;;;;5.66;46.81;101845.88;4997108;28;20032;-85
2022/04/12 01:28:25;;;;;;;6.78;4.03;;;;;;;5.74;47.39;101856.94;5013495;28;20056;-84
2022/04/12 01:30:51;;;;;;;5.22;3.30;;;;;;;5.63;47.52;101830.50;4997180;28;20025;-84
2022/04/12 01:33:16;;;;;;;5.15;3.20;;;;;;;5.57;47.18;101830.56;4996948;28;20026;-84
2022/04/12 01:35:42;;;;;;;7.82;3.85;;;;;;;5.68;47.79;101844.16;4996893;28;20494;-84
2022/04/12 01:38:07;;;;;;;10.38;4.70;;;;;;;5.62;47.43;101823.69;5013272;28;20044;-85
2022/04/12 01:40:33;;;;;;;11.55;5.65;;;;;;;5.70;47.39;101848.41;5013753;28;20455;-84
2022/04/12 01:42:58;;;;;;;13.65;7.90;;;;;;;5.74;47.17;101844.94;5013098;28;20036;-84
2022/04/12 01:45:27;;;;;;;11.15;6.30;;;;;;;5.66;47.59;101835.59;5029816;28;20022;-85
2022/04/12 01:47:52;;;;;;;20.95;9.85;;;;;;;5.61;47.57;101837.38;4997437;28;20025;-84
2022/04/12 01:50:18;;;;;;;25.38;13.02;;;;;;;5.70;47.74;101837.28;5029718;28;20459;-84
2022/04/12 01:52:44;;;;;;;7.72;3.80;;;;;;;5.67;47.12;101835.59;5013259;28;20112;-85
2022/04/12 01:55:09;;;;;;;8.57;3.88;;;;;;;5.76;47.54;101847.50;5013080;28;20021;-85
2022/04/12 01:57:35;;;;;;;7.93;4.80;;;;;;;5.55;47.52;101822.88;5012936;28;20029;-84
2022/04/12 02:00:01;;;;;;;6.10;3.70;;;;;;;5.72;46.96;101850.97;5012902;28;20058;-85
2022/04/12 02:02:26;;;;;;;5.75;3.25;;;;;;;5.62;46.78;101834.78;5012902;28;20124;-84
2022/04/12 02:04:52;;;;;;;4.82;3.22;;;;;;;5.52;47.92;101843.44;4996793;28;20041;-85
2022/04/12 02:07:17;;;;;;;5.65;3.10;;;;;;;5.34;47.19;101811.09;5030531;28;20540;-85
2022/04/12 02:09:43;;;;;;;5.28;3.20;;;;;;;5.54;47.42;101849.41;5030753;28;20475;-85
2022/04/12 02:12:08;;;;;;;6.45;3.22;;;;;;;5.57;47.86;101845.97;5029566;28;20128;-85
2022/04/12 02:14:34;;;;;;;7.88;3.90;;;;;;;5.53;47.39;101852.84;5029445;28;20446;-85
2022/04/12 02:16:59;;;;;;;5.32;3.30;;;;;;;5.48;47.89;101849.44;5029070;28;20032;-85
2022/04/12 02:19:25;;;;;;;5.15;3.22;;;;;;;5.43;47.53;101823.84;5013097;28;20021;-85
2022/04/12 02:21:51;;;;;;;8.13;3.75;;;;;;;5.50;47.86;101836.59;5029285;28;20394;-84
2022/04/12 02:24:16;;;;;;;6.65;3.58;;;;;;;5.42;47.74;101824.72;5012996;28;20501;-85
2022/04/12 02:26:42;;;;;;;6.85;3.60;;;;;;;5.50;47.86;101839.16;5029454;28;20099;-84
2022/04/12 02:29:07;;;;;;;6.97;3.65;;;;;;;5.33;48.38;101842.75;5013014;28;20025;-84
2022/04/12 02:31:33;;;;;;;6.60;3.53;;;;;;;5.19;48.26;101816.31;5012535;28;20025;-84
2022/04/12 02:33:59;;;;;;;7.53;3.63;;;;;;;5.23;48.76;101841.13;5012897;28;20029;-85
2022/04/12 02:36:24;;;;;;;6.70;4.32;;;;;;;5.21;48.77;101839.41;5012682;28;20371;-85
2022/04/12 02:38:50;;;;;;;5.70;3.40;;;;;;;5.15;48.60;101830.06;4997520;28;20437;-84
2022/04/12 02:41:15;;;;;;;7.13;3.88;;;;;;;5.09;48.88;101812.13;5033211;28;20030;-84
2022/04/12 02:43:41;;;;;;;7.80;4.22;;;;;;;5.22;48.21;101831.72;5016486;28;20029;-84
2022/04/12 02:46:06;;;;;;;8.82;4.10;;;;;;;5.00;48.85;101801.94;5033098;28;20041;-85
2022/04/12 02:48:32;;;;;;;6.65;3.80;;;;;;;5.06;48.96;101833.53;5016432;28;20036;-84
2022/04/12 02:50:57;;;;;;;6.32;3.80;;;;;;;4.93;49.19;101818.25;5016590;28;20037;-85
2022/04/12 02:53:23;;;;;;;5.72;3.72;;;;;;;4.89;48.78;101805.44;5016742;28;20072;-84
2022/04/12 02:55:48;;;;;;;5.20;3.33;;;;;;;4.87;49.28;101809.72;5016561;28;20411;-84
2022/04/12 02:58:14;;;;;;;6.35;3.70;;;;;;;4.96;49.55;101831.03;5015950;28;20025;-86
2022/04/12 03:00:39;;;;;;;7.03;3.30;;;;;;;4.94;49.24;101825.06;5016187;28;20025;-86
2022/04/12 03:03:05;;;;;;;5.22;3.05;;;;;;;4.82;49.56;101821.72;5016190;28;20557;-86
2022/04/12 03:05:30;;;;;;;4.25;3.00;;;;;;;4.96;49.82;101836.16;4999846;28;20033;-86
2022/04/12 03:08:14;;;;;;;4.85;3.15;;;;;;;5.06;49.35;101832.69;5016370;28;20636;-86
2022/04/12 03:10:40;;;;;;;5.78;3.35;;;;;;;5.03;48.81;101828.44;5018568;28;20021;-86
2022/04/12 03:13:05;;;;;;;10.88;3.45;;;;;;;5.11;49.34;101828.34;5015972;28;20384;-86
2022/04/12 03:15:31;;;;;;;9.30;3.42;;;;;;;5.05;49.68;101810.47;5016023;28;20021;-87
2022/04/12 03:17:56;;;;;;;5.20;3.08;;;;;;;5.17;49.51;101836.00;5016118;28;20033;-86
2022/04/12 03:20:22;;;;;;;8.98;4.50;;;;;;;5.18;49.57;101838.56;5015700;28;20021;-86
2022/04/12 03:22:47;;;;;;;11.98;6.00;;;;;;;5.15;48.71;101822.34;5025987;28;20105;-86
2022/04/12 03:25:13;;;;;;;9.00;4.22;;;;;;;5.91;55.90;101844.81;4978560;28;20033;-86
2022/04/12 03:27:38;;;;;;;9.40;4.32;;;;;;;8.49;46.74;101835.66;5012095;28;20022;-86
2022/04/12 03:30:04;;;;;;;9.80;4.50;;;;;;;9.15;40.61;101842.78;5011830;28;20406;-85
2022/04/12 03:32:30;;;;;;;10.00;4.53;;;;;;;8.52;40.70;101824.44;4997306;28;20084;-86
2022/04/12 03:34:56;;;;;;;12.07;4.80;;;;;;;7.58;42.73;101817.63;4976145;28;20030;-84
2022/04/12 03:37:21;;;;;;;9.65;4.68;;;;;;;7.04;43.32;101835.66;4992238;28;20085;-85
2022/04/12 03:39:47;;;;;;;8.43;4.72;;;;;;;6.61;44.46;101836.28;4976409;28;20499;-85
2022/04/12 03:42:14;;;;;;;13.07;4.75;;;;;;;6.31;45.96;101841.81;4959739;28;20018;-86
2022/04/12 03:44:40;;;;;;;15.45;8.35;;;;;;;6.19;45.87;101842.78;4976554;28;20396;-86
2022/04/12 03:47:07;;;;;;;10.48;6.30;;;;;;;6.07;47.41;101842.06;4976325;28;20026;-86
2022/04/12 03:49:32;;;;;;;8.52;5.43;;;;;;;5.71;47.23;101818.47;4991842;28;20037;-87
2022/04/12 03:51:58;;;;;;;14.05;6.57;;;;;;;5.69;48.17;101848.41;4975923;28;20101;-86
2022/04/12 03:54:23;;;;;;;14.95;9.48;;;;;;;5.61;48.21;101845.09;4975498;28;20019;-86
2022/04/12 03:56:49;;;;;;;13.50;7.53;;;;;;;5.42;48.21;101822.16;4958693;28;20092;-86
2022/04/12 03:59:15;;;;;;;16.60;9.02;;;;;;;5.48;48.51;101845.16;4975457;28;20050;-81
2022/04/12 04:01:40;;;;;;;16.42;10.25;;;;;;;5.26;49.33;101832.53;4976135;28;20526;-83
2022/04/12 04:04:06;;;;;;;14.10;8.38;;;;;;;5.31;49.58;101844.47;4959818;28;20497;-83
2022/04/12 04:06:31;;;;;;;13.18;8.55;;;;;;;5.30;49.04;101845.31;4992124;28;20516;-81
2022/04/12 04:08:57;;;;;;;9.30;7.03;;;;;;;5.24;48.95;101850.50;4959772;28;20022;-82
2022/04/12 04:11:22;;;;;;;12.85;7.28;;;;;;;5.07;49.28;101826.69;4989035;28;20085;-82
2022/04/12 04:13:48;;;;;;;12.70;7.70;;;;;;;5.24;49.91;101857.34;4959048;28;20447;-80
2022/04/12 04:16:13;;;;;;;14.30;7.72;;;;;;;5.25;50.18;101849.66;4975740;28;20030;-82
2022/04/12 04:18:39;;;;;;;15.45;7.93;;;;;;;5.24;50.24;101852.22;4986829;28;20064;-80
2022/04/12 04:21:04;;;;;;;22.27;11.68;;;;;;;5.16;50.29;101834.31;5010774;28;20123;-86
2022/04/12 04:23:30;;;;;;;18.77;9.60;;;;;;;5.26;50.34;101861.59;5008850;28;20037;-84
2022/04/12 04:25:55;;;;;;;19.55;9.48;;;;;;;5.15;50.76;101853.13;4991950;28;20040;-84
2022/04/12 04:28:26;;;;;;;16.02;9.95;;;;;;;5.17;50.27;101864.22;4978557;28;20030;-82
2022/04/12 04:30:52;;;;;;;20.60;11.13;;;;;;;5.22;50.65;101865.06;5011214;28;20101;-90
2022/04/12 04:33:17;;;;;;;17.95;9.07;;;;;;;5.10;50.17;101842.03;4994475;28;20046;-87
2022/04/12 04:35:46;;;;;;;12.88;7.32;;;;;;;5.03;50.46;101843.81;4994026;28;20559;-88
2022/04/12 04:38:12;;;;;;;11.27;6.43;;;;;;;5.11;50.27;101862.59;4994095;28;20026;-94
2022/04/12 04:40:38;;;;;;;13.75;5.90;;;;;;;5.19;49.82;101871.06;4978678;28;20022;-93
2022/04/12 04:43:03;;;;;;;9.02;5.40;;;;;;;5.15;50.47;101873.66;4978684;28;20069;-90
2022/04/12 04:45:29;;;;;;;9.90;5.25;;;;;;;5.26;49.62;101882.13;4974940;28;20026;-88
2022/04/12 04:47:56;;;;;;;10.85;6.57;;;;;;;5.22;49.86;101885.59;4990506;28;20026;-90
2022/04/12 04:50:23;;;;;;;9.10;5.68;;;;;;;5.31;49.63;101892.34;4994237;28;20026;-90
2022/04/12 04:52:49;;;;;;;12.07;5.18;;;;;;;5.36;49.07;101888.91;4993253;28;20029;-82
2022/04/12 04:55:15;;;;;;;10.43;5.65;;;;;;;5.36;50.60;101898.31;5009530;28;20081;-83
2022/04/12 04:57:41;;;;;;;12.43;6.72;;;;;;;5.28;49.66;101879.56;4990745;28;20088;-86
2022/04/12 05:00:08;;;;;;;13.40;6.30;;;;;;;5.40;50.00;101882.03;5007441;28;20060;-85
2022/04/12 05:02:34;;;;;;;11.88;5.55;;;;;;;5.41;49.65;101882.03;4981713;28;20492;-86
2022/04/12 05:05:00;;;;;;;10.95;6.30;;;;;;;5.66;49.40;101905.78;4992737;28;20038;-81
2022/04/12 05:07:26;;;;;;;9.88;5.97;;;;;;;5.73;49.28;101904.88;4993533;28;20025;-84
2022/04/12 05:09:52;;;;;;;13.02;6.43;;;;;;;5.95;52.97;101910.69;4995349;28;20026;-90
2022/04/12 05:12:18;;;;;;;11.20;6.10;;;;;;;6.02;49.03;101902.06;4977065;28;20487;-84
2022/04/12 05:14:43;;;;;;;24.75;15.10;;;;;;;5.99;48.73;101896.94;4989165;28;20112;-88
2022/04/12 05:17:09;;;;;;;16.73;8.25;;;;;;;6.15;49.16;101912.22;4974238;28;20093;-84
2022/04/12 05:19:34;;;;;;;17.67;7.68;;;;;;;6.19;48.73;101890.75;4965648;28;20030;-92
2022/04/12 05:22:00;;;;;;;11.75;6.32;;;;;;;6.27;47.88;101927.50;4992250;28;20431;-89
2022/04/12 05:24:25;;;;;;;15.30;8.00;;;;;;;6.29;47.90;101923.19;4981483;28;20073;-83
2022/04/12 05:26:51;;;;;;;19.20;9.02;;;;;;;6.41;47.98;101924.81;5009484;28;20030;-90
2022/04/12 05:29:17;;;;;;;15.35;6.95;;;;;;;6.44;47.38;101925.63;4979320;28;20076;-94
2022/04/12 05:31:42;;;;;;;13.35;6.88;;;;;;;6.39;47.86;101901.69;5000928;28;20053;-87
2022/04/12 05:34:08;;;;;;;10.18;5.22;;;;;;;6.63;47.94;101922.84;5004492;28;20106;-95
2022/04/12 05:36:34;;;;;;;12.02;5.30;;;;;;;6.72;47.84;101915.84;5010389;28;20036;-93
2022/04/12 05:38:59;;;;;;;10.40;6.07;;;;;;;6.80;47.48;101903.75;4990129;28;20026;-91
2022/04/12 05:41:25;;;;;;;8.98;4.95;;;;;;;6.95;47.42;101912.97;4993241;28;20046;-86
2022/04/12 05:43:50;;;;;;;10.32;6.38;;;;;;;7.03;47.96;101916.31;5000623;28;20052;-86
2022/04/12 05:46:16;;;;;;;10.93;6.00;;;;;;;7.13;47.67;101906.75;5009574;28;20030;-87
2022/04/12 05:48:41;;;;;;;9.77;5.88;;;;;;;7.23;47.86;101915.19;4988710;28;20040;-84
2022/04/12 05:51:07;;;;;;;11.52;5.18;;;;;;;7.18;47.06;101874.94;5010577;28;20026;-83
2022/04/12 05:53:32;;;;;;;15.02;5.57;;;;;;;7.46;46.72;101887.34;5007099;28;20396;-87
2022/04/12 05:55:58;;;;;;;11.73;4.88;;;;;;;7.88;46.07;101913.28;4992103;28;20025;-81
2022/04/12 05:58:24;;;;;;;12.40;6.38;;;;;;;8.09;45.74;101910.34;5008574;28;20030;-92
2022/04/12 06:00:50;;;;;;;10.95;5.18;;;;;;;8.18;45.34;101904.16;4995286;28;20113;-91
2022/04/12 06:03:15;;;;;;;11.38;5.60;;;;;;;8.25;44.85;101893.69;4958487;28;20524;-84
2022/04/12 06:05:41;;;;;;;14.35;8.80;;;;;;;8.46;45.10;101904.53;5004118;28;20415;-84
2022/04/12 06:08:07;;;;;;;11.55;7.70;;;;;;;8.67;44.08;101914.41;4992053;28;20105;-88
2022/04/12 06:10:36;;;;;;;9.07;5.80;;;;;;;8.66;44.34;101911.84;4981632;28;20531;-95
2022/04/12 06:13:02;;;;;;;10.65;6.55;;;;;;;8.83;44.16;101905.44;4981342;28;20034;-91
2022/04/12 06:15:27;;;;;;;21.42;14.95;;;;;;;9.09;44.20;101914.38;4998799;28;20108;-93
2022/04/12 06:17:53;;;;;;;10.63;5.13;;;;;;;9.22;45.50;101899.44;4986265;28;20037;-82
2022/04/12 06:20:19;;;;;;;9.80;5.45;;;;;;;9.65;42.43;101914.78;5006051;28;20483;-92
2022/04/12 06:22:45;;;;;;;8.85;6.70;;;;;;;9.70;42.50;101910.34;4982249;28;20034;-84
2022/04/12 06:25:11;;;;;;;8.85;5.72;;;;;;;9.93;44.47;101908.03;4992720;28;20037;-88
2022/04/12 06:27:39;;;;;;;9.95;5.60;;;;;;;10.03;42.46;101906.91;4961590;28;20030;-94
2022/04/12 06:30:06;;;;;;;12.38;5.55;;;;;;;10.19;44.42;101916.81;4961941;28;20030;-94
2022/04/12 06:32:32;;;;;;;12.90;7.03;;;;;;;10.06;42.68;101914.56;5013817;28;20029;-84
2022/04/12 06:34:58;;;;;;;9.88;6.68;;;;;;;9.98;42.97;101907.91;4997292;28;20022;-88
2022/04/12 06:37:24;;;;;;;7.60;5.07;;;;;;;10.03;43.50;101911.22;4991029;28;20030;-92
2022/04/12 06:39:50;;;;;;;9.00;5.15;;;;;;;9.94;44.41;101917.47;4968889;28;20412;-93
2022/04/12 06:42:15;;;;;;;9.20;5.05;;;;;;;10.15;42.73;101899.72;4994888;28;20025;-89
2022/04/12 06:44:41;;;;;;;14.82;7.30;;;;;;;10.33;42.68;101889.75;4969012;28;20034;-94
2022/04/12 06:47:07;;;;;;;8.95;5.20;;;;;;;11.62;45.20;101876.31;4994774;28;20038;-94
2022/04/12 06:49:33;;;;;;;10.20;5.18;;;;;;;12.46;39.34;101886.34;4986525;28;20097;-88
2022/04/12 06:51:59;;;;;;;8.88;5.05;;;;;;;15.51;38.04;101893.19;4979326;28;20038;-95
2022/04/12 06:54:27;;;;;;;10.23;6.18;;;;;;;15.00;34.80;101892.19;4985225;28;20519;-87
2022/04/12 06:56:53;;;;;;;7.88;5.50;;;;;;;13.98;35.26;101907.19;4997729;28;20022;-93
2022/04/12 06:59:20;;;;;;;8.90;4.88;;;;;;;13.42;37.88;101882.63;4981246;28;20046;-87
2022/04/12 07:01:46;;;;;;;26.38;18.27;;;;;;;13.10;37.01;101896.03;4990634;28;20121;-86
2022/04/12 07:04:11;;;;;;;27.67;18.42;;;;;;;13.02;37.91;101898.09;4977227;28;20190;-83
2022/04/12 07:06:37;;;;;;;12.75;9.52;;;;;;;12.97;37.66;101893.06;5011735;28;20479;-90
2022/04/12 07:09:05;;;;;;;7.88;4.78;;;;;;;13.00;39.12;101902.50;5001570;28;20026;-86
2022/04/12 07:11:30;;;;;;;5.97;4.10;;;;;;;12.78;35.98;101898.13;4979901;28;20034;-87
2022/04/12 07:13:56;;;;;;;7.30;3.80;;;;;;;12.38;36.35;101893.56;5005170;28;20041;-89
2022/04/12 07:16:21;;;;;;;7.43;4.10;;;;;;;12.41;37.00;101877.03;4995046;28;20041;-82
2022/04/12 07:18:47;;;;;;;8.05;5.00;;;;;;;12.60;36.63;101893.63;5009606;28;20034;-82
2022/04/12 07:21:12;;;;;;;6.18;3.90;;;;;;;12.58;37.03;101885.03;5009940;28;20088;-82
2022/04/12 07:23:38;;;;;;;7.43;3.55;;;;;;;12.70;33.04;101873.38;5011142;28;20030;-88
2022/04/12 07:26:04;;;;;;;9.07;3.47;;;;;;;12.90;32.54;101887.28;5009904;28;20105;-87
2022/04/12 07:28:29;;;;;;;4.75;2.80;;;;;;;13.09;33.38;101884.81;5011273;28;20037;-83
2022/04/12 07:30:55;;;;;;;16.92;4.47;;;;;;;13.13;32.36;101875.13;5012039;28;20057;-82
2022/04/12 07:33:20;;;;;;;6.53;3.25;;;;;;;13.20;31.39;101851.47;4965914;28;20044;-86
2022/04/12 07:35:46;;;;;;;7.65;4.28;;;;;;;13.38;31.02;101875.88;5009142;28;20507;-81
2022/04/12 07:38:12;;;;;;;5.72;2.85;;;;;;;13.59;29.01;101891.50;5006600;28;20022;-85
2022/04/12 07:40:37;;;;;;;5.32;2.40;;;;;;;13.60;29.89;101862.84;5008365;28;20025;-82
2022/04/12 07:43:03;;;;;;;6.60;3.13;;;;;;;13.80;29.42;101862.00;4994265;28;20037;-85
2022/04/12 07:45:28;;;;;;;4.15;2.80;;;;;;;13.93;28.49;101875.31;4976867;28;20077;-83
2022/04/12 07:47:54;;;;;;;6.03;3.13;;;;;;;14.06;29.94;101877.34;5010207;28;20079;-91
2022/04/12 07:50:19;;;;;;;7.72;3.67;;;;;;;14.01;28.49;101888.84;4993164;28;20033;-86
2022/04/12 07:52:45;;;;;;;9.98;4.85;;;;;;;13.78;28.45;101864.66;4994508;28;20033;-88
2022/04/12 07:55:10;;;;;;;8.93;4.78;;;;;;;13.94;28.18;101877.84;5020037;28;20033;-86
2022/04/12 07:57:36;;;;;;;7.80;2.95;;;;;;;14.13;28.91;101871.84;4974453;28;20125;-85
2022/04/12 08:00:02;;;;;;;6.32;2.70;;;;;;;14.17;28.16;101882.06;4959266;28;20121;-91
2022/04/12 08:02:28;;;;;;;4.78;3.08;;;;;;;14.04;29.50;101881.72;4961543;28;20030;-83
2022/04/12 08:04:55;;;;;;;4.50;3.08;;;;;;;14.13;28.93;101872.69;5007658;28;20466;-90
2022/04/12 08:07:20;;;;;;;6.95;3.20;;;;;;;14.24;28.96;101870.44;4995058;28;20053;-91
2022/04/12 08:09:46;;;;;;;5.63;3.08;;;;;;;14.37;28.12;101870.75;4974050;28;20121;-85
2022/04/12 08:12:12;;;;;;;6.60;2.97;;;;;;;14.45;28.03;101889.50;4984205;28;20033;-82
2022/04/12 08:14:37;;;;;;;5.00;3.17;;;;;;;14.10;28.13;101862.41;4992238;28;20109;-81
2022/04/12 08:17:03;;;;;;;6.30;3.53;;;;;;;14.06;29.00;101855.66;4991677;28;20099;-83
2022/04/12 08:19:29;;;;;;;6.75;3.22;;;;;;;14.33;27.84;101875.25;5007255;28;20033;-85
2022/04/12 08:21:55;;;;;;;6.35;2.90;;;;;;;14.51;27.87;101878.81;4990711;28;20029;-93
2022/04/12 08:24:21;;;;;;;6.68;3.80;;;;;;;14.47;28.28;101866.03;4989525;28;20159;-85
2022/04/12 08:26:47;;;;;;;6.82;2.83;;;;;;;14.69;27.85;101886.72;4979724;28;20033;-94
2022/04/12 08:29:13;;;;;;;5.07;2.80;;;;;;;14.75;28.25;101858.63;4993641;28;20034;-86
2022/04/12 08:31:39;;;;;;;3.83;2.47;;;;;;;14.94;27.88;101866.41;5006754;28;20641;-85
2022/04/12 08:34:05;;;;;;;5.13;3.10;;;;;;;15.19;26.46;101881.72;4989824;28;20073;-85
2022/04/12 08:36:30;;;;;;;6.88;4.18;;;;;;;15.19;26.54;101879.97;5008251;28;20096;-89
2022/04/12 08:38:56;;;;;;;5.05;3.10;;;;;;;15.32;26.48;101881.97;4985179;28;20030;-84
2022/04/12 08:41:23;;;;;;;6.18;2.90;;;;;;;15.45;27.00;101872.63;5008177;28;20030;-82
2022/04/12 08:43:52;;;;;;;5.97;3.15;;;;;;;15.34;25.80;101859.25;5007151;28;20034;-84
2022/04/12 08:46:18;;;;;;;5.40;3.22;;;;;;;15.53;27.31;101880.91;4972220;28;20038;-81
2022/04/12 08:48:44;;;;;;;4.80;3.08;;;;;;;15.43;26.18;101851.81;5000149;28;20034;-83
2022/04/12 08:51:09;;;;;;;5.38;3.00;;;;;;;15.36;25.61;101873.09;4977296;28;20030;-91
2022/04/12 08:53:35;;;;;;;6.25;3.83;;;;;;;15.40;26.17;101870.25;4958387;28;20022;-91
2022/04/12 08:56:00;;;;;;;6.88;4.15;;;;;;;15.40;26.02;101843.31;4955983;28;20034;-81
2022/04/12 08:58:26;;;;;;;5.28;2.90;;;;;;;15.45;26.45;101838.72;4983196;28;20087;-86
2022/04/12 09:00:51;;;;;;;5.07;3.22;;;;;;;15.67;27.25;101852.41;5009402;28;20045;-84
2022/04/12 09:03:18;;;;;;;6.45;3.50;;;;;;;15.95;25.77;101845.78;5010471;28;20037;-89
2022/04/12 09:05:43;;;;;;;6.60;3.05;;;;;;;15.53;25.54;101833.94;5008391;28;20061;-84
2022/04/12 09:08:31;;;;;;;6.40;3.58;;;;;;;15.67;25.65;101838.53;5006643;28;20057;-84
2022/04/12 09:11:07;;;;;;;6.32;3.20;;;;;;;15.62;26.70;101832.69;4992951;28;20072;-87
2022/04/12 09:13:33;;;;;;;5.75;3.13;;;;;;;15.80;26.36;101841.34;4990688;28;20393;-84
2022/04/12 09:15:58;;;;;;;8.82;4.25;;;;;;;15.53;26.02;101805.25;4969792;28;20053;-83
2022/04/12 09:18:35;;;;;;;3.75;2.45;;;;;;;15.87;24.64;101827.06;4996476;28;20479;-85
2022/04/12 09:21:15;;;;;;;5.22;3.10;;;;;;;16.06;24.35;101827.78;4998251;28;20022;-80
2022/04/12 09:23:49;;;;;;;5.05;2.95;;;;;;;16.22;24.54;101815.63;5012382;28;20084;-80
2022/04/12 09:26:29;;;;;;;6.22;3.60;;;;;;;16.11;24.24;101823.16;4990179;28;20032;-81
2022/04/12 09:28:56;;;;;;;5.65;3.08;;;;;;;16.08;25.51;101833.75;4991914;28;20022;-82
2022/04/12 09:31:21;;;;;;;6.97;3.08;;;;;;;16.14;24.35;101830.84;5009683;28;20041;-86
2022/04/12 09:33:48;;;;;;;5.93;2.60;;;;;;;16.09;24.17;101827.59;4996952;28;20060;-82
2022/04/12 09:36:13;;;;;;;8.07;3.90;;;;;;;16.05;25.23;101823.50;4995482;28;20025;-82
2022/04/12 09:38:41;;;;;;;6.63;3.30;;;;;;;16.22;25.27;101813.00;5010488;28;20044;-81
2022/04/12 09:41:26;;;;;;;4.38;2.88;;;;;;;16.44;25.23;101824.91;4995204;28;20033;-81
2022/04/12 09:43:57;;;;;;;4.40;2.60;;;;;;;16.56;24.71;101811.16;4997505;28;20060;-83
2022/04/12 09:46:24;;;;;;;6.35;2.83;;;;;;;16.61;24.36;101806.50;5004213;28;20061;-82
2022/04/12 09:48:50;;;;;;;5.07;2.88;;;;;;;16.71;25.27;101804.25;4965700;28;20025;-86
2022/04/12 09:51:16;;;;;;;5.15;3.25;;;;;;;16.49;24.28;101783.69;4965038;28;20408;-83
2022/04/12 09:53:45;;;;;;;6.30;3.03;;;;;;;16.34;24.31;101796.66;4993533;28;20038;-82
2022/04/12 09:56:30;;;;;;;6.40;2.90;;;;;;;16.47;24.03;101798.59;5002368;28;20025;-84
2022/04/12 09:58:57;;;;;;;5.25;2.75;;;;;;;16.55;25.18;101789.41;5011468;28;20041;-90
2022/04/12 10:01:23;;;;;;;4.82;2.80;;;;;;;16.85;24.68;101789.50;5005048;28;20032;-86
2022/04/12 10:03:52;;;;;;;4.85;2.97;;;;;;;17.02;24.30;101779.84;4983591;28;20030;-81
2022/04/12 10:06:19;;;;;;;5.43;3.20;;;;;;;17.03;23.81;101768.47;4991781;28;20486;-87
2022/04/12 10:08:46;;;;;;;5.25;2.90;;;;;;;17.27;24.75;101772.25;5011560;28;20037;-81
2022/04/12 10:11:12;;;;;;;5.00;3.00;;;;;;;17.34;24.52;101762.28;5012487;28;20030;-82
2022/04/12 10:13:38;;;;;;;5.07;3.00;;;;;;;17.35;23.80;101767.41;4997762;28;20041;-83
2022/04/12 10:16:05;;;;;;;6.00;3.67;;;;;;;17.47;23.98;101753.59;4984120;28;20034;-83
2022/04/12 10:18:31;;;;;;;4.72;3.30;;;;;;;17.23;23.84;101723.69;4992650;28;20442;-83
2022/04/12 10:20:58;;;;;;;5.55;3.53;;;;;;;17.35;23.93;101753.50;4994600;28;20041;-83
2022/04/12 10:23:25;;;;;;;5.05;3.38;;;;;;;17.28;25.15;101715.56;4990396;28;20041;-81
2022/04/12 10:25:52;;;;;;;5.03;3.30;;;;;;;17.57;24.52;101743.41;4991381;28;20096;-80
2022/04/12 10:28:18;;;;;;;7.03;3.30;;;;;;;17.57;25.02;101738.19;4986390;28;20464;-84
2022/04/12 10:30:44;;;;;;;6.00;3.63;;;;;;;17.70;24.60;101743.56;5007512;28;20025;-83
2022/04/12 10:33:24;;;;;;;5.55;3.08;;;;;;;17.72;26.29;101753.00;4992965;28;20026;-85
2022/04/12 10:35:54;;;;;;;5.18;2.90;;;;;;;17.59;23.82;101741.53;5003265;28;20034;-82
2022/04/12 10:38:20;;;;;;;6.82;2.83;;;;;;;17.87;23.25;101745.97;5010531;28;20393;-82
2022/04/12 10:40:55;;;;;;;6.28;3.20;;;;;;;17.98;23.48;101732.22;4997031;28;20033;-84
2022/04/12 10:43:22;;;;;;;6.93;3.47;;;;;;;17.80;23.30;101718.50;4992426;28;20042;-82
2022/04/12 10:45:49;;;;;;;6.28;3.22;;;;;;;17.94;24.07;101718.47;5025082;28;20030;-81
2022/04/12 10:48:27;;;;;;;22.52;15.70;;;;;;;18.05;23.54;101697.69;5000609;28;20029;-80
2022/04/12 10:50:56;;;;;;;30.20;22.45;;;;;;;18.20;22.71;101721.25;5015803;28;20032;-79
2022/04/12 10:53:39;;;;;;;94.70;77.13;;;;;;;18.45;23.10;101721.34;5013882;28;20036;-83
2022/04/12 10:56:05;;;;;;;5.60;3.10;;;;;;;18.43;23.25;101722.38;5019682;28;20037;-81
2022/04/12 10:58:33;;;;;;;8.60;3.20;;;;;;;18.39;23.40;101721.75;5013065;28;20152;-82
2022/04/12 11:00:58;;;;;;;6.10;5.05;;;;;;;18.63;23.71;101714.91;5000029;28;20037;-86
2022/04/12 11:03:43;;;;;;;9.13;4.10;;;;;;;18.67;24.13;101706.88;4997264;28;20033;-85
2022/04/12 11:06:12;;;;;;;11.30;4.20;;;;;;;18.70;24.68;101704.91;5021198;28;20091;-84
2022/04/12 11:08:37;;;;;;;5.43;3.13;;;;;;;18.83;23.50;101712.78;5012832;28;20022;-84
2022/04/12 11:11:06;;;;;;;8.60;6.53;;;;;;;18.82;23.67;101708.50;5015416;28;20471;-84
2022/04/12 11:13:34;;;;;;;8.77;6.53;;;;;;;18.83;22.98;101699.69;5008266;28;20040;-87
2022/04/12 11:16:07;;;;;;;6.95;4.53;;;;;;;18.79;23.86;101691.19;4983291;28;20046;-82
2022/04/12 11:18:58;;;;;;;5.70;3.47;;;;;;;18.95;24.06;101693.59;5006852;28;20049;-87
2022/04/12 11:21:25;;;;;;;4.80;3.40;;;;;;;18.87;23.24;101685.41;4995397;28;20029;-82
2022/04/12 11:23:58;;;;;;;5.38;3.25;;;;;;;18.95;22.98;101687.53;5008194;28;21449;-88
2022/04/12 11:26:33;;;;;;;6.05;3.08;;;;;;;18.99;22.96;101687.22;4964500;28;20030;-88